createdAt,value
2022-09-26T00:00:16.082Z,112.5
2022-09-26T00:00:36.135Z,112.5
2022-09-26T00:00:56.235Z,112.5
2022-09-26T00:01:16.360Z,112.5
2022-09-26T00:01:36.492Z,112.5
2022-09-26T00:01:56.506Z,135
2022-09-26T00:02:16.479Z,135
2022-09-26T00:02:36.648Z,135
2022-09-26T00:02:56.691Z,135
2022-09-26T00:03:16.599Z,135
2022-09-26T00:03:36.685Z,135
2022-09-26T00:03:56.763Z,135
2022-09-26T00:04:18.489Z,135
2022-09-26T00:04:36.891Z,135
2022-09-26T00:04:56.933Z,135
2022-09-26T00:05:16.999Z,135
2022-09-26T00:05:37.071Z,135
2022-09-26T00:05:57.140Z,135
2022-09-26T00:06:17.196Z,135
2022-09-26T00:06:37.245Z,135
2022-09-26T00:06:57.315Z,135
2022-09-26T00:07:17.363Z,135
2022-09-26T00:07:37.427Z,135
2022-09-26T00:07:57.490Z,135
2022-09-26T00:08:17.550Z,135
2022-09-26T00:08:37.637Z,135
2022-09-26T00:08:57.714Z,135
2022-09-26T00:09:17.747Z,135
2022-09-26T00:09:37.822Z,135
2022-09-26T00:09:57.887Z,135
2022-09-26T00:10:17.972Z,135
2022-09-26T00:10:38.023Z,135
2022-09-26T00:10:58.082Z,135
2022-09-26T00:11:18.139Z,135
2022-09-26T00:11:38.205Z,135
2022-09-26T00:11:58.258Z,135
2022-09-26T00:12:18.324Z,135
2022-09-26T00:12:38.401Z,135
2022-09-26T00:12:58.443Z,135
2022-09-26T00:13:18.512Z,135
2022-09-26T00:13:38.570Z,135
2022-09-26T00:13:58.634Z,135
2022-09-26T00:14:18.659Z,135
2022-09-26T00:14:38.756Z,135
2022-09-26T00:14:58.807Z,135
2022-09-26T00:15:18.891Z,135
2022-09-26T00:15:38.965Z,112.5
2022-09-26T00:15:58.982Z,112.5
2022-09-26T00:16:19.153Z,112.5
2022-09-26T00:16:39.182Z,112.5
2022-09-26T00:16:59.319Z,112.5
2022-09-26T00:17:19.276Z,112.5
2022-09-26T00:17:39.325Z,112.5
2022-09-26T00:17:59.365Z,112.5
2022-09-26T00:18:19.416Z,112.5
2022-09-26T00:18:39.502Z,112.5
2022-09-26T00:18:59.564Z,112.5
2022-09-26T00:19:19.612Z,112.5
2022-09-26T00:19:39.673Z,112.5
2022-09-26T00:19:59.744Z,112.5
2022-09-26T00:20:19.791Z,112.5
2022-09-26T00:20:39.830Z,112.5
2022-09-26T00:20:59.902Z,90
2022-09-26T00:21:19.993Z,90
2022-09-26T00:21:40.057Z,90
2022-09-26T00:22:00.130Z,90
2022-09-26T00:22:20.194Z,90
2022-09-26T00:22:40.313Z,90
2022-09-26T00:23:00.336Z,90
2022-09-26T00:23:20.396Z,90
2022-09-26T00:23:40.471Z,112.5
2022-09-26T00:24:00.536Z,112.5
2022-09-26T00:24:20.603Z,112.5
2022-09-26T00:24:40.659Z,112.5
2022-09-26T00:25:00.713Z,112.5
2022-09-26T00:25:20.788Z,112.5
2022-09-26T00:25:40.820Z,135
2022-09-26T00:26:00.912Z,157.5
2022-09-26T00:26:20.943Z,157.5
2022-09-26T00:26:41.006Z,157.5
2022-09-26T00:27:01.078Z,157.5
2022-09-26T00:27:21.130Z,157.5
2022-09-26T00:27:41.185Z,135
2022-09-26T00:28:01.274Z,157.5
2022-09-26T00:28:21.295Z,157.5
2022-09-26T00:28:41.352Z,180
2022-09-26T00:29:01.399Z,180
2022-09-26T00:29:21.445Z,180
2022-09-26T00:29:41.556Z,157.5
2022-09-26T00:30:01.635Z,157.5
2022-09-26T00:30:21.813Z,157.5
2022-09-26T00:30:41.864Z,180
2022-09-26T00:31:01.868Z,180
2022-09-26T00:31:22.068Z,180
2022-09-26T00:31:41.906Z,202.5
2022-09-26T00:32:02.000Z,180
2022-09-26T00:32:22.019Z,180
2022-09-26T00:32:42.101Z,157.5
2022-09-26T00:33:02.193Z,112.5
2022-09-26T00:33:22.295Z,112.5
2022-09-26T00:33:42.346Z,180
2022-09-26T00:34:02.431Z,202.5
2022-09-26T00:34:22.529Z,225
2022-09-26T00:34:42.543Z,247.5
2022-09-26T00:35:02.580Z,247.5
2022-09-26T00:35:22.625Z,225
2022-09-26T00:35:42.686Z,225
2022-09-26T00:36:02.761Z,247.5
2022-09-26T00:36:29.776Z,315
2022-09-26T00:36:42.877Z,270
2022-09-26T00:37:02.958Z,247.5
2022-09-26T00:37:23.022Z,270
2022-09-26T00:37:43.078Z,247.5
2022-09-26T00:38:03.170Z,247.5
2022-09-26T00:38:23.237Z,225
2022-09-26T00:38:43.298Z,225
2022-09-26T00:39:03.362Z,202.5
2022-09-26T00:39:23.422Z,202.5
2022-09-26T00:39:43.468Z,180
2022-09-26T00:40:03.528Z,157.5
2022-09-26T00:40:23.686Z,157.5
2022-09-26T00:40:43.777Z,180
2022-09-26T00:41:03.741Z,180
2022-09-26T00:41:23.797Z,180
2022-09-26T00:41:43.875Z,180
2022-09-26T00:42:03.935Z,157.5
2022-09-26T00:42:23.972Z,135
2022-09-26T00:42:44.017Z,135
2022-09-26T00:43:04.104Z,157.5
2022-09-26T00:43:24.166Z,180
2022-09-26T00:43:44.235Z,180
2022-09-26T00:44:04.281Z,180
2022-09-26T00:44:24.366Z,135
2022-09-26T00:44:44.430Z,135
2022-09-26T00:45:04.455Z,157.5
2022-09-26T00:45:24.520Z,180
2022-09-26T00:45:44.650Z,157.5
2022-09-26T00:46:04.693Z,157.5
2022-09-26T00:46:24.779Z,157.5
2022-09-26T00:46:44.780Z,135
2022-09-26T00:47:04.845Z,135
2022-09-26T00:47:24.903Z,135
2022-09-26T00:47:44.961Z,135
2022-09-26T00:48:05.018Z,112.5
2022-09-26T00:48:25.089Z,112.5
2022-09-26T00:48:45.182Z,112.5
2022-09-26T00:49:05.270Z,135
2022-09-26T00:49:25.313Z,157.5
2022-09-26T00:49:45.331Z,180
2022-09-26T00:50:05.400Z,180
2022-09-26T00:50:25.451Z,180
2022-09-26T00:50:45.483Z,135
2022-09-26T00:51:05.538Z,112.5
2022-09-26T00:51:25.618Z,135
2022-09-26T00:51:45.695Z,157.5
2022-09-26T00:52:05.744Z,157.5
2022-09-26T00:52:25.780Z,157.5
2022-09-26T00:52:45.844Z,157.5
2022-09-26T00:53:05.906Z,157.5
2022-09-26T00:53:25.981Z,157.5
2022-09-26T00:53:46.028Z,135
2022-09-26T00:54:06.109Z,135
2022-09-26T00:54:26.155Z,112.5
2022-09-26T00:54:46.225Z,112.5
2022-09-26T00:55:06.323Z,112.5
2022-09-26T00:55:26.394Z,157.5
2022-09-26T00:55:46.512Z,157.5
2022-09-26T00:56:06.565Z,135
2022-09-26T00:56:26.631Z,112.5
2022-09-26T00:56:46.703Z,135
2022-09-26T00:57:06.768Z,157.5
2022-09-26T00:57:26.825Z,157.5
2022-09-26T00:57:46.863Z,157.5
2022-09-26T00:58:06.899Z,180
2022-09-26T00:58:26.976Z,180
2022-09-26T00:58:47.043Z,180
2022-09-26T00:59:07.099Z,180
2022-09-26T00:59:27.154Z,157.5
2022-09-26T00:59:47.217Z,112.5
2022-09-26T01:00:07.289Z,157.5
2022-09-26T01:00:27.340Z,180
2022-09-26T01:00:47.470Z,180
2022-09-26T01:01:07.591Z,180
2022-09-26T01:01:27.681Z,180
2022-09-26T01:01:47.716Z,157.5
2022-09-26T01:02:07.889Z,157.5
2022-09-26T01:02:27.776Z,157.5
2022-09-26T01:02:47.794Z,180
2022-09-26T01:03:07.777Z,180
2022-09-26T01:03:27.847Z,180
2022-09-26T01:03:47.919Z,180
2022-09-26T01:04:07.972Z,157.5
2022-09-26T01:04:28.044Z,135
2022-09-26T01:04:48.152Z,135
2022-09-26T01:05:08.212Z,135
2022-09-26T01:05:28.260Z,112.5
2022-09-26T01:05:48.310Z,112.5
2022-09-26T01:06:08.395Z,112.5
2022-09-26T01:06:28.470Z,112.5
2022-09-26T01:06:48.515Z,135
2022-09-26T01:07:08.590Z,180
2022-09-26T01:07:28.663Z,180
2022-09-26T01:07:48.724Z,157.5
2022-09-26T01:08:08.838Z,157.5
2022-09-26T01:08:28.869Z,157.5
2022-09-26T01:08:48.913Z,180
2022-09-26T01:09:09.293Z,180
2022-09-26T01:09:29.068Z,180
2022-09-26T01:09:49.124Z,180
2022-09-26T01:10:09.184Z,157.5
2022-09-26T01:10:29.241Z,157.5
2022-09-26T01:10:49.319Z,180
2022-09-26T01:11:11.569Z,202.5
2022-09-26T01:11:29.449Z,180
2022-09-26T01:11:49.533Z,180
2022-09-26T01:12:09.614Z,157.5
2022-09-26T01:12:29.653Z,157.5
2022-09-26T01:12:49.742Z,157.5
2022-09-26T01:13:09.783Z,157.5
2022-09-26T01:13:29.845Z,135
2022-09-26T01:13:49.922Z,112.5
2022-09-26T01:14:09.978Z,90
2022-09-26T01:14:30.040Z,90
2022-09-26T01:14:50.090Z,112.5
2022-09-26T01:15:10.154Z,90
2022-09-26T01:15:30.220Z,135
2022-09-26T01:15:50.296Z,157.5
2022-09-26T01:16:10.440Z,180
2022-09-26T01:16:30.488Z,180
2022-09-26T01:16:50.563Z,180
2022-09-26T01:17:10.568Z,157.5
2022-09-26T01:17:30.633Z,112.5
2022-09-26T01:17:50.685Z,112.5
2022-09-26T01:18:10.742Z,157.5
2022-09-26T01:18:30.772Z,157.5
2022-09-26T01:18:50.847Z,157.5
2022-09-26T01:19:10.941Z,180
2022-09-26T01:19:30.979Z,180
2022-09-26T01:19:51.076Z,180
2022-09-26T01:20:11.149Z,157.5
2022-09-26T01:20:31.212Z,180
2022-09-26T01:20:51.282Z,180
2022-09-26T01:21:11.335Z,180
2022-09-26T01:21:31.393Z,180
2022-09-26T01:21:51.428Z,180
2022-09-26T01:22:11.511Z,180
2022-09-26T01:22:31.578Z,180
2022-09-26T01:22:51.651Z,180
2022-09-26T01:23:11.709Z,180
2022-09-26T01:23:31.773Z,157.5
2022-09-26T01:23:51.814Z,180
2022-09-26T01:24:11.887Z,180
2022-09-26T01:24:31.959Z,157.5
2022-09-26T01:24:52.002Z,180
2022-09-26T01:25:12.071Z,157.5
2022-09-26T01:25:32.118Z,180
2022-09-26T01:25:52.210Z,180
2022-09-26T01:26:12.276Z,180
2022-09-26T01:26:32.335Z,135
2022-09-26T01:26:52.407Z,112.5
2022-09-26T01:27:12.456Z,157.5
2022-09-26T01:27:32.527Z,180
2022-09-26T01:27:52.571Z,180
2022-09-26T01:28:12.630Z,135
2022-09-26T01:28:32.712Z,135
2022-09-26T01:28:52.794Z,157.5
2022-09-26T01:29:12.931Z,180
2022-09-26T01:29:32.923Z,180
2022-09-26T01:29:52.965Z,157.5
2022-09-26T01:30:13.011Z,135
2022-09-26T01:30:33.116Z,112.5
2022-09-26T01:30:53.127Z,112.5
2022-09-26T01:31:13.311Z,90
2022-09-26T01:31:33.289Z,135
2022-09-26T01:31:53.347Z,157.5
2022-09-26T01:32:13.439Z,180
2022-09-26T01:32:33.505Z,180
2022-09-26T01:32:53.573Z,202.5
2022-09-26T01:33:13.635Z,225
2022-09-26T01:33:33.698Z,180
2022-09-26T01:33:53.753Z,180
2022-09-26T01:34:13.823Z,180
2022-09-26T01:34:33.897Z,180
2022-09-26T01:34:53.951Z,157.5
2022-09-26T01:35:14.008Z,157.5
2022-09-26T01:35:34.068Z,180
2022-09-26T01:35:54.136Z,180
2022-09-26T01:36:14.198Z,180
2022-09-26T01:36:34.272Z,180
2022-09-26T01:36:54.324Z,157.5
2022-09-26T01:37:14.387Z,180
2022-09-26T01:37:34.446Z,157.5
2022-09-26T01:37:54.496Z,157.5
2022-09-26T01:38:14.578Z,157.5
2022-09-26T01:38:34.651Z,180
2022-09-26T01:38:54.705Z,180
2022-09-26T01:39:14.941Z,180
2022-09-26T01:39:34.825Z,180
2022-09-26T01:39:54.871Z,180
2022-09-26T01:40:14.965Z,202.5
2022-09-26T01:40:35.093Z,225
2022-09-26T01:40:55.138Z,202.5
2022-09-26T01:41:15.147Z,180
2022-09-26T01:41:35.205Z,180
2022-09-26T01:41:55.268Z,202.5
2022-09-26T01:42:15.335Z,202.5
2022-09-26T01:42:35.389Z,202.5
2022-09-26T01:42:55.450Z,180
2022-09-26T01:43:15.522Z,180
2022-09-26T01:43:35.553Z,180
2022-09-26T01:43:55.636Z,180
2022-09-26T01:44:15.664Z,135
2022-09-26T01:44:35.738Z,112.5
2022-09-26T01:44:55.824Z,135
2022-09-26T01:45:15.923Z,180
2022-09-26T01:45:36.059Z,180
2022-09-26T01:45:56.073Z,157.5
2022-09-26T01:46:16.152Z,180
2022-09-26T01:46:36.133Z,157.5
2022-09-26T01:46:56.203Z,180
2022-09-26T01:47:16.282Z,157.5
2022-09-26T01:47:36.352Z,157.5
2022-09-26T01:47:56.428Z,157.5
2022-09-26T01:48:16.494Z,180
2022-09-26T01:48:36.543Z,180
2022-09-26T01:48:56.624Z,180
2022-09-26T01:49:16.685Z,180
2022-09-26T01:49:36.763Z,180
2022-09-26T01:49:56.801Z,180
2022-09-26T01:50:16.867Z,202.5
2022-09-26T01:50:36.975Z,202.5
2022-09-26T01:50:57.013Z,202.5
2022-09-26T01:51:17.070Z,180
2022-09-26T01:51:37.309Z,157.5
2022-09-26T01:51:57.215Z,157.5
2022-09-26T01:52:17.295Z,157.5
2022-09-26T01:52:37.348Z,157.5
2022-09-26T01:52:57.414Z,270
2022-09-26T01:53:17.485Z,292.5
2022-09-26T01:53:37.548Z,270
2022-09-26T01:53:57.628Z,225
2022-09-26T01:54:17.710Z,180
2022-09-26T01:54:37.790Z,135
2022-09-26T01:54:57.812Z,135
2022-09-26T01:55:17.892Z,157.5
2022-09-26T01:55:37.951Z,180
2022-09-26T01:55:58.020Z,202.5
2022-09-26T01:56:18.081Z,202.5
2022-09-26T01:56:38.149Z,202.5
2022-09-26T01:56:58.235Z,202.5
2022-09-26T01:57:18.315Z,202.5
2022-09-26T01:57:38.338Z,180
2022-09-26T01:57:58.396Z,202.5
2022-09-26T01:58:18.438Z,202.5
2022-09-26T01:58:38.499Z,180
2022-09-26T01:58:58.587Z,157.5
2022-09-26T01:59:18.644Z,157.5
2022-09-26T01:59:38.710Z,135
2022-09-26T01:59:58.804Z,135
2022-09-26T02:00:18.857Z,135
2022-09-26T02:00:38.948Z,135
2022-09-26T02:00:59.082Z,157.5
2022-09-26T02:01:19.118Z,157.5
2022-09-26T02:01:39.321Z,157.5
2022-09-26T02:01:59.299Z,180
2022-09-26T02:02:19.431Z,180
2022-09-26T02:02:39.438Z,180
2022-09-26T02:02:59.431Z,180
2022-09-26T02:03:19.457Z,180
2022-09-26T02:03:39.535Z,180
2022-09-26T02:03:59.621Z,180
2022-09-26T02:04:19.683Z,157.5
2022-09-26T02:04:39.756Z,157.5
2022-09-26T02:04:59.801Z,157.5
2022-09-26T02:05:19.851Z,157.5
2022-09-26T02:05:39.923Z,202.5
2022-09-26T02:05:59.970Z,225
2022-09-26T02:06:20.036Z,225
2022-09-26T02:06:40.102Z,225
2022-09-26T02:07:00.171Z,225
2022-09-26T02:07:20.248Z,202.5
2022-09-26T02:07:40.290Z,202.5
2022-09-26T02:08:00.336Z,180
2022-09-26T02:08:20.397Z,180
2022-09-26T02:08:40.464Z,180
2022-09-26T02:09:00.503Z,180
2022-09-26T02:09:20.567Z,180
2022-09-26T02:09:40.619Z,180
2022-09-26T02:10:00.689Z,180
2022-09-26T02:10:20.772Z,180
2022-09-26T02:10:40.871Z,157.5
2022-09-26T02:11:00.936Z,157.5
2022-09-26T02:11:21.023Z,180
2022-09-26T02:11:41.089Z,180
2022-09-26T02:12:01.139Z,157.5
2022-09-26T02:12:21.189Z,180
2022-09-26T02:12:41.243Z,180
2022-09-26T02:13:01.302Z,180
2022-09-26T02:13:21.369Z,180
2022-09-26T02:13:41.461Z,180
2022-09-26T02:14:01.529Z,180
2022-09-26T02:14:21.607Z,180
2022-09-26T02:14:41.638Z,180
2022-09-26T02:15:01.731Z,180
2022-09-26T02:15:21.764Z,180
2022-09-26T02:15:41.823Z,157.5
2022-09-26T02:16:02.013Z,157.5
2022-09-26T02:16:21.999Z,180
2022-09-26T02:16:42.060Z,180
2022-09-26T02:17:02.209Z,157.5
2022-09-26T02:17:22.139Z,135
2022-09-26T02:17:42.205Z,157.5
2022-09-26T02:18:02.275Z,157.5
2022-09-26T02:18:22.368Z,135
2022-09-26T02:18:42.402Z,135
2022-09-26T02:19:02.497Z,157.5
2022-09-26T02:19:22.562Z,157.5
2022-09-26T02:19:42.610Z,135
2022-09-26T02:20:02.672Z,157.5
2022-09-26T02:20:22.740Z,157.5
2022-09-26T02:20:42.818Z,135
2022-09-26T02:21:02.856Z,157.5
2022-09-26T02:21:22.913Z,157.5
2022-09-26T02:21:42.953Z,180
2022-09-26T02:22:03.025Z,202.5
2022-09-26T02:22:23.107Z,202.5
2022-09-26T02:22:43.175Z,180
2022-09-26T02:23:03.234Z,202.5
2022-09-26T02:23:23.310Z,225
2022-09-26T02:23:43.393Z,225
2022-09-26T02:24:03.435Z,202.5
2022-09-26T02:24:23.480Z,202.5
2022-09-26T02:24:43.527Z,225
2022-09-26T02:25:03.567Z,202.5
2022-09-26T02:25:23.646Z,157.5
2022-09-26T02:25:43.714Z,157.5
2022-09-26T02:26:03.763Z,180
2022-09-26T02:26:23.818Z,202.5
2022-09-26T02:26:43.883Z,225
2022-09-26T02:27:03.981Z,225
2022-09-26T02:27:24.023Z,202.5
2022-09-26T02:27:44.088Z,202.5
2022-09-26T02:28:04.183Z,180
2022-09-26T02:28:24.222Z,202.5
2022-09-26T02:28:44.286Z,225
2022-09-26T02:29:04.359Z,225
2022-09-26T02:29:24.401Z,247.5
2022-09-26T02:29:44.459Z,247.5
2022-09-26T02:30:04.505Z,180
2022-09-26T02:30:24.590Z,180
2022-09-26T02:30:44.671Z,180
2022-09-26T02:31:04.736Z,180
2022-09-26T02:31:24.896Z,180
2022-09-26T02:31:44.925Z,180
2022-09-26T02:32:04.926Z,180
2022-09-26T02:32:24.920Z,157.5
2022-09-26T02:32:45.017Z,157.5
2022-09-26T02:33:05.086Z,180
2022-09-26T02:33:25.176Z,180
2022-09-26T02:33:45.255Z,157.5
2022-09-26T02:34:05.309Z,180
2022-09-26T02:34:25.392Z,180
2022-09-26T02:34:45.450Z,157.5
2022-09-26T02:35:05.525Z,157.5
2022-09-26T02:35:25.596Z,157.5
2022-09-26T02:35:45.665Z,157.5
2022-09-26T02:36:05.712Z,157.5
2022-09-26T02:36:25.771Z,135
2022-09-26T02:36:45.851Z,157.5
2022-09-26T02:37:05.889Z,157.5
2022-09-26T02:37:25.949Z,180
2022-09-26T02:37:46.036Z,180
2022-09-26T02:38:06.115Z,157.5
2022-09-26T02:38:26.185Z,135
2022-09-26T02:38:46.225Z,135
2022-09-26T02:39:06.402Z,157.5
2022-09-26T02:39:26.344Z,180
2022-09-26T02:39:46.424Z,180
2022-09-26T02:40:06.482Z,180
2022-09-26T02:40:26.631Z,157.5
2022-09-26T02:40:46.707Z,157.5
2022-09-26T02:41:06.706Z,180
2022-09-26T02:41:26.795Z,180
2022-09-26T02:41:46.842Z,180
2022-09-26T02:42:06.916Z,202.5
2022-09-26T02:42:26.985Z,225
2022-09-26T02:42:47.056Z,202.5
2022-09-26T02:43:07.095Z,180
2022-09-26T02:43:27.179Z,157.5
2022-09-26T02:43:47.236Z,180
2022-09-26T02:44:07.316Z,180
2022-09-26T02:44:27.371Z,180
2022-09-26T02:44:47.421Z,157.5
2022-09-26T02:45:07.492Z,180
2022-09-26T02:45:27.607Z,180
2022-09-26T02:45:47.649Z,180
2022-09-26T02:46:07.790Z,180
2022-09-26T02:46:27.756Z,180
2022-09-26T02:46:47.790Z,180
2022-09-26T02:47:07.845Z,135
2022-09-26T02:47:27.920Z,112.5
2022-09-26T02:47:48.029Z,112.5
2022-09-26T02:48:08.103Z,112.5
2022-09-26T02:48:28.192Z,157.5
2022-09-26T02:48:48.248Z,180
2022-09-26T02:49:08.353Z,202.5
2022-09-26T02:49:28.362Z,180
2022-09-26T02:49:48.429Z,112.5
2022-09-26T02:50:08.482Z,67.5
2022-09-26T02:50:28.554Z,67.5
2022-09-26T02:50:48.629Z,135
2022-09-26T02:51:08.647Z,180
2022-09-26T02:51:28.728Z,202.5
2022-09-26T02:51:48.780Z,225
2022-09-26T02:52:08.838Z,225
2022-09-26T02:52:28.921Z,225
2022-09-26T02:52:48.992Z,247.5
2022-09-26T02:53:09.056Z,225
2022-09-26T02:53:29.117Z,225
2022-09-26T02:53:49.225Z,247.5
2022-09-26T02:54:09.304Z,225
2022-09-26T02:54:29.382Z,180
2022-09-26T02:54:49.475Z,157.5
2022-09-26T02:55:09.529Z,112.5
2022-09-26T02:55:29.603Z,90
2022-09-26T02:55:49.677Z,90
2022-09-26T02:56:09.732Z,112.5
2022-09-26T02:56:29.791Z,112.5
2022-09-26T02:56:49.851Z,112.5
2022-09-26T02:57:09.922Z,112.5
2022-09-26T02:57:29.975Z,157.5
2022-09-26T02:57:50.058Z,180
2022-09-26T02:58:10.139Z,202.5
2022-09-26T02:58:30.214Z,180
2022-09-26T02:58:50.301Z,180
2022-09-26T02:59:10.369Z,157.5
2022-09-26T02:59:30.395Z,157.5
2022-09-26T02:59:50.467Z,157.5
2022-09-26T03:00:10.541Z,157.5
2022-09-26T03:00:30.593Z,157.5
2022-09-26T03:00:50.781Z,180
2022-09-26T03:01:10.891Z,180
2022-09-26T03:01:30.867Z,180
2022-09-26T03:01:50.833Z,180
2022-09-26T03:02:10.899Z,180
2022-09-26T03:02:30.946Z,202.5
2022-09-26T03:02:50.992Z,202.5
2022-09-26T03:03:11.068Z,180
2022-09-26T03:03:31.206Z,157.5
2022-09-26T03:03:51.244Z,180
2022-09-26T03:04:11.241Z,202.5
2022-09-26T03:04:31.362Z,202.5
2022-09-26T03:04:51.490Z,180
2022-09-26T03:05:11.564Z,157.5
2022-09-26T03:05:31.458Z,157.5
2022-09-26T03:05:51.499Z,135
2022-09-26T03:06:11.579Z,112.5
2022-09-26T03:06:31.633Z,135
2022-09-26T03:06:51.776Z,180
2022-09-26T03:07:11.770Z,157.5
2022-09-26T03:07:31.863Z,180
2022-09-26T03:07:51.954Z,180
2022-09-26T03:08:12.051Z,202.5
2022-09-26T03:08:32.121Z,247.5
2022-09-26T03:08:52.153Z,225
2022-09-26T03:09:12.304Z,202.5
2022-09-26T03:09:32.314Z,180
2022-09-26T03:09:52.344Z,157.5
2022-09-26T03:10:12.418Z,157.5
2022-09-26T03:10:32.445Z,180
2022-09-26T03:10:52.517Z,180
2022-09-26T03:11:12.607Z,180
2022-09-26T03:11:32.696Z,180
2022-09-26T03:11:52.745Z,225
2022-09-26T03:12:12.794Z,247.5
2022-09-26T03:12:32.853Z,270
2022-09-26T03:12:52.897Z,247.5
2022-09-26T03:13:12.982Z,202.5
2022-09-26T03:13:33.050Z,202.5
2022-09-26T03:13:53.101Z,180
2022-09-26T03:14:13.155Z,180
2022-09-26T03:14:33.216Z,202.5
2022-09-26T03:14:58.414Z,225
2022-09-26T03:15:13.364Z,247.5
2022-09-26T03:15:33.426Z,247.5
2022-09-26T03:15:53.473Z,225
2022-09-26T03:16:13.603Z,180
2022-09-26T03:16:33.677Z,225
2022-09-26T03:16:53.763Z,180
2022-09-26T03:17:13.712Z,135
2022-09-26T03:17:33.781Z,135
2022-09-26T03:17:53.839Z,180
2022-09-26T03:18:13.878Z,225
2022-09-26T03:18:33.928Z,270
2022-09-26T03:18:53.981Z,247.5
2022-09-26T03:19:14.185Z,202.5
2022-09-26T03:19:34.145Z,135
2022-09-26T03:19:54.206Z,112.5
2022-09-26T03:20:14.257Z,90
2022-09-26T03:20:34.322Z,157.5
2022-09-26T03:20:54.479Z,135
2022-09-26T03:21:14.490Z,135
2022-09-26T03:21:36.944Z,135
2022-09-26T03:21:54.640Z,157.5
2022-09-26T03:22:14.692Z,157.5
2022-09-26T03:22:34.742Z,135
2022-09-26T03:22:54.822Z,135
2022-09-26T03:23:14.865Z,157.5
2022-09-26T03:23:34.898Z,180
2022-09-26T03:23:54.940Z,180
2022-09-26T03:24:15.027Z,180
2022-09-26T03:24:35.109Z,180
2022-09-26T03:24:55.164Z,180
2022-09-26T03:25:15.228Z,180
2022-09-26T03:25:35.294Z,180
2022-09-26T03:25:55.342Z,180
2022-09-26T03:26:15.409Z,202.5
2022-09-26T03:26:35.487Z,180
2022-09-26T03:26:55.533Z,157.5
2022-09-26T03:27:15.617Z,157.5
2022-09-26T03:27:35.671Z,112.5
2022-09-26T03:27:55.728Z,90
2022-09-26T03:28:15.771Z,135
2022-09-26T03:28:37.934Z,157.5
2022-09-26T03:28:55.885Z,180
2022-09-26T03:29:15.983Z,180
2022-09-26T03:29:36.031Z,180
2022-09-26T03:29:56.085Z,180
2022-09-26T03:30:16.154Z,202.5
2022-09-26T03:30:36.233Z,247.5
2022-09-26T03:30:56.322Z,315
2022-09-26T03:31:16.467Z,270
2022-09-26T03:31:36.553Z,225
2022-09-26T03:31:56.635Z,202.5
2022-09-26T03:32:16.677Z,202.5
2022-09-26T03:32:36.675Z,202.5
2022-09-26T03:32:56.750Z,225
2022-09-26T03:33:16.774Z,202.5
2022-09-26T03:33:36.825Z,202.5
2022-09-26T03:33:56.882Z,202.5
2022-09-26T03:34:16.943Z,202.5
2022-09-26T03:34:37.027Z,225
2022-09-26T03:34:57.088Z,180
2022-09-26T03:35:17.156Z,180
2022-09-26T03:35:37.219Z,180
2022-09-26T03:35:57.295Z,202.5
2022-09-26T03:36:17.369Z,202.5
2022-09-26T03:36:37.465Z,202.5
2022-09-26T03:36:57.520Z,180
2022-09-26T03:37:17.614Z,180
2022-09-26T03:37:37.659Z,202.5
2022-09-26T03:37:57.714Z,225
2022-09-26T03:38:17.805Z,292.5
2022-09-26T03:38:37.877Z,292.5
2022-09-26T03:38:57.957Z,202.5
2022-09-26T03:39:18.026Z,225
2022-09-26T03:39:38.096Z,180
2022-09-26T03:39:58.166Z,157.5
2022-09-26T03:40:18.295Z,135
2022-09-26T03:40:38.348Z,135
2022-09-26T03:40:58.477Z,157.5
2022-09-26T03:41:18.420Z,157.5
2022-09-26T03:41:38.493Z,180
2022-09-26T03:41:58.535Z,180
2022-09-26T03:42:18.609Z,202.5
2022-09-26T03:42:38.674Z,225
2022-09-26T03:42:58.743Z,225
2022-09-26T03:43:18.829Z,225
2022-09-26T03:43:38.919Z,202.5
2022-09-26T03:43:59.004Z,157.5
2022-09-26T03:44:19.044Z,157.5
2022-09-26T03:44:39.113Z,180
2022-09-26T03:44:59.152Z,202.5
2022-09-26T03:45:19.203Z,180
2022-09-26T03:45:39.344Z,202.5
2022-09-26T03:45:59.397Z,225
2022-09-26T03:46:19.510Z,202.5
2022-09-26T03:46:40.270Z,202.5
2022-09-26T03:46:59.501Z,180
2022-09-26T03:47:19.564Z,157.5
2022-09-26T03:47:39.641Z,157.5
2022-09-26T03:47:59.717Z,157.5
2022-09-26T03:48:19.775Z,135
2022-09-26T03:48:39.859Z,112.5
2022-09-26T03:48:59.939Z,90
2022-09-26T03:49:20.032Z,112.5
2022-09-26T03:49:40.065Z,135
2022-09-26T03:50:00.116Z,112.5
2022-09-26T03:50:20.195Z,90
2022-09-26T03:50:40.265Z,135
2022-09-26T03:51:00.329Z,157.5
2022-09-26T03:51:20.355Z,135
2022-09-26T03:51:40.434Z,135
2022-09-26T03:52:00.496Z,157.5
2022-09-26T03:52:20.605Z,157.5
2022-09-26T03:52:40.676Z,157.5
2022-09-26T03:53:00.698Z,112.5
2022-09-26T03:53:20.766Z,112.5
2022-09-26T03:53:40.818Z,112.5
2022-09-26T03:54:00.903Z,135
2022-09-26T03:54:20.973Z,157.5
2022-09-26T03:54:41.031Z,157.5
2022-09-26T03:55:01.111Z,157.5
2022-09-26T03:55:21.195Z,157.5
2022-09-26T03:55:41.276Z,135
2022-09-26T03:56:01.354Z,135
2022-09-26T03:56:21.416Z,135
2022-09-26T03:56:41.514Z,157.5
2022-09-26T03:57:01.540Z,180
2022-09-26T03:57:21.605Z,180
2022-09-26T03:57:41.669Z,180
2022-09-26T03:58:01.778Z,157.5
2022-09-26T03:58:21.851Z,135
2022-09-26T03:58:41.931Z,135
2022-09-26T03:59:01.988Z,112.5
2022-09-26T03:59:22.086Z,112.5
2022-09-26T03:59:42.178Z,112.5
2022-09-26T04:00:02.270Z,157.5
2022-09-26T04:00:22.333Z,157.5
2022-09-26T04:00:42.461Z,157.5
2022-09-26T04:01:02.473Z,157.5
2022-09-26T04:01:22.558Z,157.5
2022-09-26T04:01:42.583Z,157.5
2022-09-26T04:02:02.724Z,135
2022-09-26T04:02:22.862Z,135
2022-09-26T04:02:42.885Z,135
2022-09-26T04:03:02.835Z,135
2022-09-26T04:03:22.899Z,157.5
2022-09-26T04:03:47.769Z,180
2022-09-26T04:04:03.033Z,157.5
2022-09-26T04:04:23.090Z,157.5
2022-09-26T04:04:43.156Z,157.5
2022-09-26T04:05:03.205Z,135
2022-09-26T04:05:23.273Z,135
2022-09-26T04:05:43.331Z,112.5
2022-09-26T04:06:03.361Z,112.5
2022-09-26T04:06:23.439Z,135
2022-09-26T04:06:43.517Z,157.5
2022-09-26T04:07:03.578Z,157.5
2022-09-26T04:07:23.609Z,112.5
2022-09-26T04:07:43.665Z,112.5
2022-09-26T04:08:03.745Z,135
2022-09-26T04:08:23.809Z,157.5
2022-09-26T04:08:43.867Z,135
2022-09-26T04:09:03.931Z,180
2022-09-26T04:09:24.002Z,157.5
2022-09-26T04:09:44.108Z,157.5
2022-09-26T04:10:04.180Z,135
2022-09-26T04:10:24.235Z,135
2022-09-26T04:10:44.283Z,90
2022-09-26T04:11:04.310Z,90
2022-09-26T04:11:24.373Z,90
2022-09-26T04:11:44.468Z,112.5
2022-09-26T04:12:04.538Z,112.5
2022-09-26T04:12:24.590Z,112.5
2022-09-26T04:12:44.680Z,112.5
2022-09-26T04:13:04.737Z,112.5
2022-09-26T04:13:50.141Z,135
2022-09-26T04:13:53.519Z,157.5
2022-09-26T04:14:04.930Z,157.5
2022-09-26T04:14:24.995Z,135
2022-09-26T04:14:45.054Z,135
2022-09-26T04:15:05.115Z,112.5
2022-09-26T04:15:25.206Z,112.5
2022-09-26T04:15:45.238Z,112.5
2022-09-26T04:16:05.366Z,157.5
2022-09-26T04:16:25.407Z,157.5
2022-09-26T04:16:45.471Z,180
2022-09-26T04:17:05.482Z,157.5
2022-09-26T04:17:25.554Z,135
2022-09-26T04:17:45.590Z,157.5
2022-09-26T04:18:05.681Z,180
2022-09-26T04:18:25.714Z,180
2022-09-26T04:18:45.799Z,157.5
2022-09-26T04:19:05.957Z,135
2022-09-26T04:19:25.909Z,135
2022-09-26T04:19:45.999Z,112.5
2022-09-26T04:20:06.055Z,135
2022-09-26T04:20:26.147Z,157.5
2022-09-26T04:20:46.199Z,157.5
2022-09-26T04:21:09.858Z,180
2022-09-26T04:21:26.335Z,180
2022-09-26T04:21:46.363Z,180
2022-09-26T04:22:06.452Z,157.5
2022-09-26T04:22:26.508Z,135
2022-09-26T04:22:46.602Z,135
2022-09-26T04:23:06.644Z,135
2022-09-26T04:23:26.708Z,157.5
2022-09-26T04:23:46.744Z,157.5
2022-09-26T04:24:06.806Z,157.5
2022-09-26T04:24:26.879Z,135
2022-09-26T04:24:46.939Z,112.5
2022-09-26T04:25:06.996Z,135
2022-09-26T04:25:27.030Z,157.5
2022-09-26T04:25:47.094Z,135
2022-09-26T04:26:07.169Z,157.5
2022-09-26T04:26:27.228Z,180
2022-09-26T04:26:47.312Z,180
2022-09-26T04:27:07.363Z,157.5
2022-09-26T04:27:27.437Z,135
2022-09-26T04:27:47.501Z,112.5
2022-09-26T04:28:07.562Z,112.5